sensor_id;sensor_type;location;lat;lon;timestamp;pressure;altitude;pressure_sealevel;temperature;humidity
71903;BME280;59778;50.310;18.780;2022-09-09T00:17:47;98521.28;;;17.32;99.59
71903;BME280;59778;50.310;18.780;2022-09-09T00:33:11;98525.84;;;17.15;99.23
71903;BME280;59778;50.310;18.780;2022-09-09T01:04:34;98550.88;;;16.90;100.00
71903;BME280;59778;50.310;18.780;2022-09-09T01:20:13;98553.03;;;16.65;100.00
71903;BME280;59778;50.310;18.780;2022-09-09T01:36:04;98566.50;;;16.66;100.00
71903;BME280;59778;50.310;18.780;2022-09-09T01:51:28;98574.97;;;16.65;100.00
71903;BME280;59778;50.310;18.780;2022-09-09T02:06:52;98576.78;;;16.59;100.00
71903;BME280;59778;50.310;18.780;2022-09-09T02:22:19;98584.47;;;16.50;100.00
71903;BME280;59778;50.310;18.780;2022-09-09T02:37:42;98607.53;;;16.20;100.00
71903;BME280;59778;50.310;18.780;2022-09-09T02:53:15;98607.19;;;16.16;100.00
71903;BME280;59778;50.310;18.780;2022-09-09T03:08:37;98611.34;;;16.07;100.00
71903;BME280;59778;50.310;18.780;2022-09-09T03:23:58;98621.47;;;15.77;99.31
71903;BME280;59778;50.310;18.780;2022-09-09T03:39:19;98642.06;;;15.49;99.48
71903;BME280;59778;50.310;18.780;2022-09-09T03:54:41;98649.78;;;15.34;99.91
71903;BME280;59778;50.310;18.780;2022-09-09T04:10:03;98656.69;;;15.37;98.26
71903;BME280;59778;50.310;18.780;2022-09-09T04:25:24;98655.88;;;15.18;96.30
71903;BME280;59778;50.310;18.780;2022-09-09T04:40:46;98653.59;;;14.97;98.67
71903;BME280;59778;50.310;18.780;2022-09-09T04:56:11;98661.44;;;15.12;99.12
71903;BME280;59778;50.310;18.780;2022-09-09T05:11:34;98668.56;;;15.31;99.26
71903;BME280;59778;50.310;18.780;2022-09-09T05:26:57;98693.41;;;15.11;100.00
71903;BME280;59778;50.310;18.780;2022-09-09T05:42:20;98689.53;;;15.37;100.00
71903;BME280;59778;50.310;18.780;2022-09-09T05:57:41;98698.25;;;15.70;100.00
71903;BME280;59778;50.310;18.780;2022-09-09T06:13:03;98702.38;;;16.21;100.00
71903;BME280;59778;50.310;18.780;2022-09-09T06:28:24;98701.06;;;16.53;98.86
71903;BME280;59778;50.310;18.780;2022-09-09T06:43:46;98695.06;;;16.98;97.27
71903;BME280;59778;50.310;18.780;2022-09-09T06:59:08;98702.22;;;17.45;94.88
71903;BME280;59778;50.310;18.780;2022-09-09T07:14:30;98686.88;;;18.12;88.67
71903;BME280;59778;50.310;18.780;2022-09-09T07:29:51;98679.91;;;18.83;86.36
71903;BME280;59778;50.310;18.780;2022-09-09T07:45:12;98691.19;;;19.53;82.34
71903;BME280;59778;50.310;18.780;2022-09-09T08:00:33;98708.38;;;19.82;76.16
71903;BME280;59778;50.310;18.780;2022-09-09T08:15:54;98710.38;;;19.87;74.84
71903;BME280;59778;50.310;18.780;2022-09-09T08:31:18;98714.63;;;20.69;71.93
71903;BME280;59778;50.310;18.780;2022-09-09T08:46:54;98713.34;;;20.82;68.80
71903;BME280;59778;50.310;18.780;2022-09-09T09:02:26;98726.22;;;20.72;70.49
71903;BME280;59778;50.310;18.780;2022-09-09T09:17:52;98712.56;;;21.19;71.36
71903;BME280;59778;50.310;18.780;2022-09-09T09:49:03;98711.38;;;21.46;66.69
71903;BME280;59778;50.310;18.780;2022-09-09T10:04:26;98703.59;;;21.38;65.74
71903;BME280;59778;50.310;18.780;2022-09-09T11:07:10;98733.47;;;22.55;52.98
71903;BME280;59778;50.310;18.780;2022-09-09T11:22:37;98724.09;;;23.53;53.92
71903;BME280;59778;50.310;18.780;2022-09-09T11:38:14;98733.53;;;23.16;56.10
71903;BME280;59778;50.310;18.780;2022-09-09T11:54:02;98723.38;;;24.06;49.79
71903;BME280;59778;50.310;18.780;2022-09-09T12:09:31;98723.44;;;23.96;49.99
71903;BME280;59778;50.310;18.780;2022-09-09T12:24:59;98725.94;;;23.98;48.54
71903;BME280;59778;50.310;18.780;2022-09-09T12:40:33;98734.84;;;23.89;49.09
71903;BME280;59778;50.310;18.780;2022-09-09T12:55:58;98713.19;;;24.51;46.79
71903;BME280;59778;50.310;18.780;2022-09-09T13:11:24;98712.81;;;25.40;43.36
71903;BME280;59778;50.310;18.780;2022-09-09T13:26:54;98688.81;;;24.81;44.63
71903;BME280;59778;50.310;18.780;2022-09-09T13:42:29;98674.94;;;24.37;45.26
71903;BME280;59778;50.310;18.780;2022-09-09T13:57:54;98657.88;;;24.10;47.56
71903;BME280;59778;50.310;18.780;2022-09-09T14:13:16;98647.88;;;23.45;47.34
71903;BME280;59778;50.310;18.780;2022-09-09T14:28:37;98649.25;;;23.58;48.79
71903;BME280;59778;50.310;18.780;2022-09-09T14:43:58;98626.94;;;24.37;46.74
71903;BME280;59778;50.310;18.780;2022-09-09T14:59:20;98628.22;;;23.16;50.08
71903;BME280;59778;50.310;18.780;2022-09-09T15:14:43;98647.66;;;23.01;52.10
71903;BME280;59778;50.310;18.780;2022-09-09T15:30:04;98637.00;;;22.02;57.89
71903;BME280;59778;50.310;18.780;2022-09-09T15:45:26;98642.81;;;21.95;64.45
71903;BME280;59778;50.310;18.780;2022-09-09T16:00:50;98649.34;;;21.74;68.32
71903;BME280;59778;50.310;18.780;2022-09-09T16:16:13;98632.50;;;21.24;71.79
71903;BME280;59778;50.310;18.780;2022-09-09T16:31:34;98616.13;;;20.75;71.54
71903;BME280;59778;50.310;18.780;2022-09-09T16:46:55;98623.03;;;20.19;72.87
71903;BME280;59778;50.310;18.780;2022-09-09T17:02:17;98624.84;;;19.38;75.83
71903;BME280;59778;50.310;18.780;2022-09-09T17:17:38;98632.19;;;18.94;78.27
71903;BME280;59778;50.310;18.780;2022-09-09T17:33:00;98642.66;;;18.59;79.13
71903;BME280;59778;50.310;18.780;2022-09-09T17:48:21;98639.84;;;18.42;81.05
71903;BME280;59778;50.310;18.780;2022-09-09T18:03:44;98655.56;;;18.30;81.75
71903;BME280;59778;50.310;18.780;2022-09-09T18:19:08;98657.31;;;18.19;82.51
71903;BME280;59778;50.310;18.780;2022-09-09T18:34:33;98668.88;;;18.05;83.80
71903;BME280;59778;50.310;18.780;2022-09-09T18:49:55;98681.72;;;17.87;84.06
71903;BME280;59778;50.310;18.780;2022-09-09T19:05:16;98697.16;;;17.77;84.71
71903;BME280;59778;50.310;18.780;2022-09-09T19:20:38;98691.22;;;17.68;84.57
71903;BME280;59778;50.310;18.780;2022-09-09T19:36:00;98679.19;;;17.58;84.91
71903;BME280;59778;50.310;18.780;2022-09-09T19:51:24;98683.56;;;17.47;85.83
71903;BME280;59778;50.310;18.780;2022-09-09T20:06:45;98686.69;;;17.39;85.95
71903;BME280;59778;50.310;18.780;2022-09-09T20:22:06;98679.31;;;17.28;86.62
71903;BME280;59778;50.310;18.780;2022-09-09T20:37:28;98674.06;;;17.15;85.52
71903;BME280;59778;50.310;18.780;2022-09-09T20:52:51;98675.88;;;16.98;86.50
71903;BME280;59778;50.310;18.780;2022-09-09T21:08:12;98662.88;;;16.93;86.89
71903;BME280;59778;50.310;18.780;2022-09-09T21:23:33;98670.59;;;16.73;87.50
71903;BME280;59778;50.310;18.780;2022-09-09T21:38:56;98674.81;;;16.45;89.16
71903;BME280;59778;50.310;18.780;2022-09-09T21:54:18;98669.09;;;16.35;89.29
71903;BME280;59778;50.310;18.780;2022-09-09T22:09:39;98675.13;;;16.26;89.86
71903;BME280;59778;50.310;18.780;2022-09-09T22:25:00;98667.28;;;16.29;88.96
71903;BME280;59778;50.310;18.780;2022-09-09T22:40:22;98678.09;;;16.24;89.53
71903;BME280;59778;50.310;18.780;2022-09-09T22:55:55;98675.84;;;16.33;90.45
71903;BME280;59778;50.310;18.780;2022-09-09T23:11:19;98704.56;;;16.00;94.26
71903;BME280;59778;50.310;18.780;2022-09-09T23:26:42;98707.97;;;16.14;93.78
71903;BME280;59778;50.310;18.780;2022-09-09T23:42:06;98685.19;;;16.02;93.46
71903;BME280;59778;50.310;18.780;2022-09-09T23:57:27;98613.75;;;16.15;93.13
